Time;durP1;ratioP1;P1;durP2;ratioP2;P2;SDS_P1;SDS_P2;PMS_P1;PMS_P2;Temp;Humidity;BMP_temperature;BMP_pressure;BME280_temperature;BME280_humidity;BME280_pressure;Samples;Min_cycle;Max_cycle;Signal;HPM_P1;HPM_P2
2022/11/22 00:00:14;;;;;;;1.75;1.00;;;17.30;72.40;;;;;;5004803;28;20278;-68
2022/11/22 00:02:40;;;;;;;1.98;1.10;;;17.30;72.40;;;;;;5014210;28;20176;-68
2022/11/22 00:05:06;;;;;;;1.65;1.35;;;17.30;72.40;;;;;;5015383;28;20713;-68
2022/11/22 00:07:32;;;;;;;1.23;1.13;;;17.30;72.30;;;;;;5014317;28;20211;-69
2022/11/22 00:09:58;;;;;;;1.30;1.10;;;17.30;72.40;;;;;;5030786;28;20249;-68
2022/11/22 00:12:24;;;;;;;2.20;1.17;;;17.30;72.40;;;;;;4998252;28;20195;-68
2022/11/22 00:14:49;;;;;;;1.65;1.30;;;17.30;72.40;;;;;;5013859;28;20298;-68
2022/11/22 00:17:15;;;;;;;2.35;1.27;;;17.20;72.30;;;;;;5014087;28;20207;-68
2022/11/22 00:19:41;;;;;;;1.27;1.17;;;17.30;72.40;;;;;;5013998;28;20254;-68
2022/11/22 00:22:07;;;;;;;1.50;1.10;;;17.30;72.40;;;;;;5014079;28;20742;-68
2022/11/22 00:24:33;;;;;;;1.02;0.98;;;17.30;73.20;;;;;;5014251;28;20191;-68
2022/11/22 00:26:59;;;;;;;0.90;0.77;;;17.30;72.40;;;;;;5013710;28;20290;-68
2022/11/22 00:29:25;;;;;;;1.30;1.20;;;17.30;72.40;;;;;;5013850;28;20235;-68
2022/11/22 00:31:51;;;;;;;1.40;1.00;;;17.30;72.50;;;;;;5013961;28;20192;-68
2022/11/22 00:34:17;;;;;;;1.10;1.00;;;17.30;72.40;;;;;;5013956;28;20191;-69
2022/11/22 00:36:42;;;;;;;1.40;1.20;;;17.30;72.50;;;;;;4997099;28;20288;-68
2022/11/22 00:39:08;;;;;;;1.75;1.23;;;17.30;72.50;;;;;;5013812;28;20207;-68
2022/11/22 00:41:34;;;;;;;1.63;1.10;;;17.30;72.50;;;;;;4997589;28;20185;-68
2022/11/22 00:43:59;;;;;;;0.98;0.90;;;17.30;72.50;;;;;;5014850;28;20219;-68
2022/11/22 00:46:25;;;;;;;1.50;1.00;;;17.30;72.50;;;;;;5013228;28;20219;-68
2022/11/22 00:48:51;;;;;;;1.40;1.27;;;17.30;72.50;;;;;;5014691;28;20168;-68
2022/11/22 00:51:17;;;;;;;1.42;1.10;;;17.30;72.50;;;;;;4997136;28;20699;-68
2022/11/22 00:53:43;;;;;;;1.35;1.17;;;17.30;72.40;;;;;;5013588;28;20681;-68
2022/11/22 00:56:08;;;;;;;1.15;1.05;;;17.30;72.50;;;;;;4995982;28;20224;-68
2022/11/22 00:58:34;;;;;;;1.23;1.13;;;17.30;72.50;;;;;;4996943;28;20243;-68
2022/11/22 01:01:00;;;;;;;1.63;1.10;;;17.30;72.50;;;;;;4996945;28;20183;-68
2022/11/22 01:03:26;;;;;;;0.80;0.80;;;17.30;72.50;;;;;;5013166;28;20210;-68
2022/11/22 01:05:51;;;;;;;1.35;1.02;;;17.30;72.50;;;;;;4996938;28;20181;-68
2022/11/22 01:08:17;;;;;;;1.00;0.90;;;17.30;72.50;;;;;;5013062;28;20187;-68
2022/11/22 01:10:43;;;;;;;1.20;1.10;;;17.30;72.50;;;;;;5013186;28;20192;-68
2022/11/22 01:13:10;;;;;;;1.17;1.08;;;17.30;72.50;;;;;;5013221;28;20172;-68
2022/11/22 01:15:37;;;;;;;1.30;1.10;;;17.30;72.50;;;;;;5012659;28;20219;-68
2022/11/22 01:18:03;;;;;;;1.60;1.20;;;17.30;72.50;;;;;;5013056;28;20211;-68
2022/11/22 01:20:29;;;;;;;1.65;1.20;;;17.30;72.60;;;;;;5013006;28;20191;-68
2022/11/22 01:22:56;;;;;;;1.77;1.00;;;17.30;72.60;;;;;;5029366;28;20584;-68
2022/11/22 01:25:22;;;;;;;1.42;1.20;;;17.30;72.60;;;;;;5012686;28;20790;-68
2022/11/22 01:27:49;;;;;;;1.42;1.20;;;17.30;72.60;;;;;;5012716;28;20298;-68
2022/11/22 01:30:16;;;;;;;1.40;1.30;;;17.30;72.50;;;;;;5012662;28;20199;-68
2022/11/22 01:32:42;;;;;;;0.90;0.90;;;17.30;72.60;;;;;;5013881;28;20295;-69
2022/11/22 01:35:08;;;;;;;1.52;1.30;;;17.30;72.60;;;;;;5029240;28;20207;-68
2022/11/22 01:37:34;;;;;;;1.52;1.25;;;17.30;72.50;;;;;;5013719;28;20353;-68
2022/11/22 01:40:00;;;;;;;0.93;0.93;;;17.30;72.50;;;;;;5012876;28;20180;-68
2022/11/22 01:42:50;;;;;;;1.55;1.10;;;17.30;72.50;;;;;;5012830;28;20188;-68
2022/11/22 01:45:28;;;;;;;1.60;1.17;;;17.30;72.60;;;;;;5028908;28;20267;-68
2022/11/22 01:48:04;;;;;;;1.40;1.30;;;17.30;72.60;;;;;;5012480;28;20246;-68
2022/11/22 01:50:36;;;;;;;1.67;1.38;;;17.30;72.60;;;;;;5012776;28;20183;-68
2022/11/22 01:53:08;;;;;;;2.65;1.30;;;17.30;72.50;;;;;;5028705;28;20176;-68
2022/11/22 01:55:35;;;;;;;1.95;1.20;;;17.20;72.50;;;;;;5012177;28;20215;-68
2022/11/22 01:58:02;;;;;;;1.38;1.23;;;17.30;72.70;;;;;;5012186;28;20192;-68
2022/11/22 02:00:27;;;;;;;1.35;1.20;;;17.30;72.60;;;;;;5012142;28;20195;-68
2022/11/22 02:02:59;;;;;;;1.20;1.10;;;17.30;72.60;;;;;;5012369;28;20180;-68
2022/11/22 02:05:30;;;;;;;1.88;1.10;;;17.20;72.60;;;;;;5013523;28;20258;-68
2022/11/22 02:08:12;;;;;;;1.08;1.00;;;17.30;72.70;;;;;;5013210;28;20593;-68
2022/11/22 02:10:45;;;;;;;1.67;1.17;;;17.30;72.70;;;;;;5012347;28;20195;-68
2022/11/22 02:13:13;;;;;;;1.50;1.20;;;17.30;72.70;;;;;;5012084;28;20192;-68
2022/11/22 02:15:41;;;;;;;1.23;1.05;;;17.30;72.60;;;;;;4995626;28;20226;-68
2022/11/22 02:18:06;;;;;;;1.40;1.30;;;17.30;72.80;;;;;;4995616;28;20212;-68
2022/11/22 02:20:32;;;;;;;1.20;1.10;;;17.30;72.70;;;;;;4995677;28;20187;-68
2022/11/22 02:23:25;;;;;;;1.38;1.27;;;17.30;72.70;;;;;;5013121;28;20255;-68
2022/11/22 02:25:56;;;;;;;1.90;1.30;;;17.20;72.60;;;;;;5028013;28;20262;-69
2022/11/22 02:28:23;;;;;;;1.20;1.10;;;17.30;72.80;;;;;;5013088;28;20184;-68
2022/11/22 02:30:48;;;;;;;0.95;0.88;;;17.30;72.70;;;;;;4995587;28;20191;-68
2022/11/22 02:33:14;;;;;;;1.30;1.20;;;17.30;72.70;;;;;;5011950;28;20279;-68
2022/11/22 02:35:40;;;;;;;1.40;1.00;;;17.30;72.70;;;;;;5012560;28;20215;-68
2022/11/22 02:38:13;;;;;;;1.15;1.05;;;17.20;72.60;;;;;;5011858;28;20224;-68
2022/11/22 02:40:49;;;;;;;1.00;0.88;;;17.30;72.80;;;;;;5011666;28;20359;-68
2022/11/22 02:43:23;;;;;;;1.50;1.40;;;17.30;72.70;;;;;;5011867;28;20274;-68
2022/11/22 02:45:49;;;;;;;1.20;1.10;;;17.30;72.80;;;;;;5028206;28;20179;-68
2022/11/22 02:48:17;;;;;;;1.13;1.02;;;17.30;72.80;;;;;;5033549;22;20286;-69
2022/11/22 02:50:43;;;;;;;1.17;1.00;;;17.30;72.90;;;;;;5011412;28;20180;-68
2022/11/22 02:53:11;;;;;;;1.23;1.00;;;17.30;72.80;;;;;;5012691;28;20172;-69
2022/11/22 02:55:37;;;;;;;1.33;1.10;;;17.30;72.80;;;;;;5011174;28;20256;-69
2022/11/22 02:58:07;;;;;;;2.22;1.10;;;17.30;72.80;;;;;;5011682;28;20210;-69
2022/11/22 03:00:35;;;;;;;1.20;1.10;;;17.30;72.80;;;;;;5011173;28;20216;-68
2022/11/22 03:03:01;;;;;;;1.30;1.20;;;17.20;72.70;;;;;;5012499;28;20192;-69
2022/11/22 03:05:27;;;;;;;1.00;0.90;;;17.30;72.80;;;;;;5011132;28;20231;-68
2022/11/22 03:07:52;;;;;;;1.30;1.17;;;17.30;72.70;;;;;;5011376;28;20248;-68
2022/11/22 03:10:18;;;;;;;1.25;1.15;;;17.30;73.00;;;;;;5011364;28;20195;-67
2022/11/22 03:12:44;;;;;;;1.45;1.35;;;17.30;72.90;;;;;;5011271;28;20282;-69
2022/11/22 03:15:10;;;;;;;1.10;0.98;;;17.30;72.80;;;;;;5011189;28;20212;-68
2022/11/22 03:17:36;;;;;;;1.25;1.00;;;17.30;72.90;;;;;;5011012;28;20207;-68
2022/11/22 03:20:03;;;;;;;1.13;1.00;;;17.30;72.90;;;;;;5014285;28;20644;-68
2022/11/22 03:22:29;;;;;;;0.98;0.88;;;17.30;72.90;;;;;;5016296;28;20176;-69
2022/11/22 03:24:55;;;;;;;1.15;1.00;;;17.30;72.90;;;;;;5015067;28;20188;-69
2022/11/22 03:27:21;;;;;;;0.82;0.82;;;17.30;73.00;;;;;;5015065;28;20204;-69
2022/11/22 03:29:47;;;;;;;1.23;0.95;;;17.30;73.70;;;;;;5015205;28;20192;-68
2022/11/22 03:32:12;;;;;;;1.15;1.05;;;17.30;72.80;;;;;;5015055;28;20192;-69
2022/11/22 03:34:38;;;;;;;0.90;0.90;;;17.30;72.80;;;;;;5013377;28;20239;-68
2022/11/22 03:37:04;;;;;;;1.05;0.80;;;17.30;72.80;;;;;;5019407;28;20211;-68
2022/11/22 03:39:29;;;;;;;1.52;1.00;;;17.30;72.90;;;;;;5034681;28;20183;-69
2022/11/22 03:41:55;;;;;;;1.08;1.08;;;17.30;72.90;;;;;;5034478;28;20655;-68
2022/11/22 03:44:22;;;;;;;1.00;0.90;;;17.30;72.90;;;;;;5034345;28;20191;-69
2022/11/22 03:46:48;;;;;;;1.27;1.08;;;17.30;72.80;;;;;;5034008;28;20223;-69
2022/11/22 03:49:14;;;;;;;1.17;1.08;;;17.30;72.80;;;;;;5019711;28;20199;-69
2022/11/22 03:51:39;;;;;;;1.13;0.90;;;17.30;72.90;;;;;;4998651;28;20180;-68
2022/11/22 03:54:05;;;;;;;1.05;0.95;;;17.30;72.80;;;;;;5014481;28;20192;-69
2022/11/22 03:56:31;;;;;;;1.15;1.05;;;17.30;72.80;;;;;;5014326;28;20220;-68
2022/11/22 03:58:57;;;;;;;1.02;0.93;;;17.30;72.80;;;;;;5014220;28;20191;-68
2022/11/22 04:01:22;;;;;;;0.80;0.80;;;17.30;72.90;;;;;;5014585;28;20190;-69
2022/11/22 04:03:48;;;;;;;1.25;0.80;;;17.30;72.80;;;;;;5014474;28;20278;-69
2022/11/22 04:06:14;;;;;;;1.10;1.00;;;17.30;72.80;;;;;;5013838;28;20234;-68
2022/11/22 04:08:40;;;;;;;0.77;0.77;;;17.30;72.90;;;;;;5014428;28;20184;-69
2022/11/22 04:11:05;;;;;;;0.90;0.90;;;17.30;72.90;;;;;;5014603;28;20240;-69
2022/11/22 04:16:15;;;;;;;1.40;0.95;;;17.30;72.90;;;;;;5015030;28;20222;-68
2022/11/22 04:18:41;;;;;;;1.27;1.20;;;17.30;72.90;;;;;;5014170;28;20176;-69
2022/11/22 04:25:12;;;;;;;0.90;0.90;;;17.30;72.90;;;;;;5014040;28;20191;-69
2022/11/22 04:26:37;;;;;;;1.30;1.20;;;17.30;72.90;;;;;;5014714;28;20299;-68
2022/11/22 04:29:03;;;;;;;1.10;1.00;;;17.30;72.90;;;;;;5014229;28;20267;-69
2022/11/22 04:34:13;;;;;;;0.73;0.73;;;17.30;72.80;;;;;;5013901;28;20179;-68
2022/11/22 04:36:39;;;;;;;0.82;0.80;;;17.30;72.90;;;;;;4997190;28;20200;-68
2022/11/22 04:39:04;;;;;;;1.17;1.00;;;17.30;72.90;;;;;;4997688;28;20184;-68
2022/11/22 04:41:30;;;;;;;1.08;0.90;;;17.30;72.80;;;;;;5013736;28;20191;-68
2022/11/22 04:46:40;;;;;;;0.82;0.70;;;17.30;72.90;;;;;;5013247;28;20215;-69
2022/11/22 04:49:06;;;;;;;1.25;0.80;;;17.30;72.80;;;;;;5013617;28;20173;-68
2022/11/22 04:54:16;;;;;;;1.20;1.10;;;17.30;72.90;;;;;;5013343;28;20183;-68
2022/11/22 04:56:42;;;;;;;0.90;0.90;;;17.30;72.80;;;;;;5014412;28;20200;-69
2022/11/22 04:59:07;;;;;;;1.15;1.05;;;17.30;72.80;;;;;;5013415;28;20199;-68
2022/11/22 05:01:33;;;;;;;1.35;1.00;;;17.30;72.80;;;;;;4997209;28;20180;-68
2022/11/22 05:03:59;;;;;;;0.98;0.90;;;17.30;72.80;;;;;;5013353;28;20270;-68
2022/11/22 05:06:25;;;;;;;0.98;0.98;;;17.30;72.80;;;;;;5013089;28;20199;-69
2022/11/22 05:08:50;;;;;;;1.23;1.13;;;17.30;72.90;;;;;;5013125;28;20180;-68
2022/11/22 05:11:17;;;;;;;1.10;0.90;;;17.30;72.80;;;;;;5013093;28;20246;-69
2022/11/22 05:13:43;;;;;;;1.05;1.05;;;17.30;72.80;;;;;;5014274;28;20184;-69
2022/11/22 05:16:13;;;;;;;1.20;0.93;;;17.30;72.80;;;;;;5012932;28;20216;-69
2022/11/22 05:18:39;;;;;;;0.90;0.90;;;17.30;72.80;;;;;;5013023;28;20725;-69
2022/11/22 05:21:11;;;;;;;1.00;0.90;;;17.30;72.80;;;;;;5012982;28;20288;-69
2022/11/22 05:23:55;;;;;;;1.10;1.00;;;17.30;73.00;;;;;;4996635;28;20194;-69
2022/11/22 05:26:32;;;;;;;0.90;0.75;;;17.30;72.80;;;;;;5012947;28;20180;-69
2022/11/22 05:29:02;;;;;;;1.10;1.00;;;17.30;72.90;;;;;;5014013;28;20195;-68
2022/11/22 05:31:28;;;;;;;1.90;1.20;;;17.30;72.80;;;;;;5013055;28;20191;-69
2022/11/22 05:33:56;;;;;;;1.08;0.90;;;17.30;72.80;;;;;;5013856;28;20192;-68
2022/11/22 05:36:23;;;;;;;1.27;1.10;;;17.30;72.80;;;;;;5013561;28;20270;-68
2022/11/22 05:38:49;;;;;;;0.85;0.85;;;17.30;72.80;;;;;;4996099;28;20206;-69
2022/11/22 05:41:16;;;;;;;1.15;0.98;;;17.30;72.80;;;;;;5012046;28;20180;-69
2022/11/22 05:43:43;;;;;;;1.00;0.90;;;17.30;72.70;;;;;;5012637;28;20215;-68
2022/11/22 05:46:21;;;;;;;1.13;1.02;;;17.30;72.80;;;;;;5012286;28;20192;-69
2022/11/22 05:48:47;;;;;;;1.10;1.00;;;17.30;72.80;;;;;;5012539;28;20219;-69
2022/11/22 05:51:16;;;;;;;0.88;0.88;;;17.30;72.80;;;;;;5012636;28;20188;-69
2022/11/22 05:53:43;;;;;;;1.80;1.00;;;17.30;72.70;;;;;;5012250;28;20188;-69
2022/11/22 05:56:12;;;;;;;0.82;0.73;;;17.30;73.50;;;;;;5013119;28;20228;-69
2022/11/22 05:58:38;;;;;;;0.85;0.85;;;17.30;72.80;;;;;;5012003;28;20192;-68
2022/11/22 06:01:14;;;;;;;1.85;0.90;;;17.30;72.90;;;;;;5012120;28;20191;-69
2022/11/22 06:03:40;;;;;;;1.27;0.80;;;17.30;72.90;;;;;;5012253;28;20234;-69
2022/11/22 06:06:07;;;;;;;0.77;0.77;;;17.30;72.90;;;;;;5013200;28;20188;-69
2022/11/22 06:08:37;;;;;;;1.25;0.80;;;17.30;73.60;;;;;;5012279;28;20231;-69
2022/11/22 06:11:24;;;;;;;0.80;0.80;;;17.30;72.80;;;;;;4998641;28;20192;-70
2022/11/22 06:14:03;;;;;;;1.23;1.00;;;17.30;73.00;;;;;;4992751;28;20235;-70
2022/11/22 06:16:29;;;;;;;1.23;1.00;;;17.30;72.80;;;;;;4976006;28;20236;-68
2022/11/22 06:18:55;;;;;;;1.10;1.00;;;17.30;72.90;;;;;;4992267;28;20228;-70
2022/11/22 06:21:24;;;;;;;1.27;1.17;;;17.30;72.80;;;;;;4975602;28;20247;-70
2022/11/22 06:23:52;;;;;;;1.70;1.30;;;17.30;72.80;;;;;;4983106;28;20267;-70
2022/11/22 06:26:21;;;;;;;1.67;1.58;;;17.30;72.90;;;;;;5011153;28;20184;-70
2022/11/22 06:28:48;;;;;;;1.40;1.30;;;17.30;72.80;;;;;;5011399;28;20235;-70
2022/11/22 06:31:17;;;;;;;1.25;1.15;;;17.30;73.60;;;;;;5027801;28;20188;-70
2022/11/22 06:33:44;;;;;;;1.90;1.40;;;17.30;73.00;;;;;;5011108;28;20195;-70
2022/11/22 06:36:17;;;;;;;1.73;1.02;;;17.30;73.00;;;;;;5010960;28;20306;-70
2022/11/22 06:38:44;;;;;;;1.60;1.45;;;17.30;73.00;;;;;;4994821;28;20228;-69
2022/11/22 06:41:14;;;;;;;1.80;1.60;;;17.30;72.90;;;;;;5011115;28;20176;-69
2022/11/22 06:43:42;;;;;;;1.77;1.42;;;17.30;72.70;;;;;;4993704;28;20184;-69
2022/11/22 06:46:10;;;;;;;1.60;1.50;;;17.30;72.80;;;;;;5012075;28;20180;-69
2022/11/22 06:48:38;;;;;;;1.73;1.45;;;17.30;72.90;;;;;;4994417;28;20223;-69
2022/11/22 06:51:12;;;;;;;2.67;1.58;;;17.30;72.90;;;;;;5011155;28;20215;-69
2022/11/22 06:53:38;;;;;;;1.88;1.77;;;17.30;72.90;;;;;;4995995;28;20189;-69
2022/11/22 06:56:10;;;;;;;1.70;1.60;;;17.30;72.90;;;;;;4992356;28;20250;-69
2022/11/22 06:58:36;;;;;;;1.55;1.45;;;17.30;72.80;;;;;;4991286;28;20209;-69
2022/11/22 07:01:09;;;;;;;1.92;1.50;;;17.30;72.90;;;;;;5007577;28;20256;-69
2022/11/22 07:03:36;;;;;;;2.35;1.70;;;17.30;72.90;;;;;;4992598;28;20181;-69
2022/11/22 07:06:04;;;;;;;2.72;1.70;;;17.30;72.80;;;;;;5007513;28;20185;-69
2022/11/22 07:08:30;;;;;;;2.63;1.65;;;17.30;72.90;;;;;;5007368;28;20209;-69
2022/11/22 07:11:02;;;;;;;2.22;1.70;;;17.30;72.90;;;;;;5008226;28;20191;-69
2022/11/22 07:13:28;;;;;;;2.38;1.75;;;17.20;72.80;;;;;;5007659;28;20193;-69
2022/11/22 07:15:59;;;;;;;2.10;1.90;;;17.20;72.80;;;;;;5007431;28;20220;-69
2022/11/22 07:18:26;;;;;;;1.75;1.58;;;17.30;72.90;;;;;;4992573;28;20279;-69
2022/11/22 07:20:52;;;;;;;2.35;2.00;;;17.30;73.00;;;;;;5007507;28;20184;-69
2022/11/22 07:23:18;;;;;;;2.10;1.60;;;17.30;72.80;;;;;;5007420;28;20188;-70
2022/11/22 07:25:45;;;;;;;1.92;1.73;;;17.30;72.90;;;;;;5007280;28;20184;-69
2022/11/22 07:28:13;;;;;;;1.80;1.70;;;17.30;72.90;;;;;;5007396;28;20212;-69
2022/11/22 07:30:39;;;;;;;2.47;1.88;;;17.30;73.00;;;;;;5007472;28;20611;-69
2022/11/22 07:33:05;;;;;;;1.80;1.70;;;17.30;73.00;;;;;;5007320;28;20199;-69
2022/11/22 07:35:31;;;;;;;2.13;1.70;;;17.20;72.90;;;;;;5007129;28;20295;-67
2022/11/22 07:37:57;;;;;;;2.70;2.40;;;17.30;72.90;;;;;;4991040;28;20201;-69
2022/11/22 07:40:23;;;;;;;2.45;2.17;;;17.30;72.90;;;;;;4990858;28;20638;-69
2022/11/22 07:42:48;;;;;;;5.45;4.78;;;17.30;72.90;;;;;;5007442;28;20191;-69
2022/11/22 07:45:14;;;;;;;2.85;2.55;;;17.30;72.90;;;;;;5007453;28;20200;-69
2022/11/22 07:47:40;;;;;;;3.20;2.58;;;17.30;72.90;;;;;;5006923;28;20252;-70
2022/11/22 07:50:06;;;;;;;5.53;3.70;;;17.30;72.90;;;;;;4990863;28;20283;-70
2022/11/22 07:52:33;;;;;;;4.75;3.58;;;17.30;72.80;;;;;;5007115;28;20240;-69
2022/11/22 07:54:59;;;;;;;4.75;3.25;;;17.30;72.80;;;;;;5007202;28;20271;-69
2022/11/22 07:57:24;;;;;;;4.97;2.95;;;17.30;72.80;;;;;;4990796;28;20201;-69
2022/11/22 07:59:50;;;;;;;5.05;3.80;;;17.30;72.90;;;;;;4990990;28;20555;-69
2022/11/22 08:02:16;;;;;;;3.58;2.95;;;17.30;72.80;;;;;;5019913;28;20279;-69
2022/11/22 08:04:42;;;;;;;4.82;3.05;;;17.30;72.80;;;;;;5011118;28;20188;-69
2022/11/22 08:07:08;;;;;;;3.70;3.20;;;17.30;72.90;;;;;;5005201;28;20211;-69
2022/11/22 08:09:35;;;;;;;4.35;3.47;;;17.30;72.90;;;;;;4994184;28;20185;-69
2022/11/22 08:12:01;;;;;;;3.95;3.40;;;17.30;72.90;;;;;;4994356;28;20224;-69
2022/11/22 08:14:28;;;;;;;4.90;2.97;;;17.30;72.90;;;;;;4995410;28;20216;-69
2022/11/22 08:16:53;;;;;;;5.35;3.30;;;17.30;72.90;;;;;;4999498;28;20274;-69
2022/11/22 08:19:20;;;;;;;5.90;3.35;;;17.30;72.90;;;;;;5013669;28;20180;-69
2022/11/22 08:21:47;;;;;;;3.28;2.80;;;17.30;72.80;;;;;;5014819;28;20567;-69
2022/11/22 08:24:14;;;;;;;3.97;2.75;;;17.30;72.80;;;;;;5014047;28;20250;-69
2022/11/22 08:26:42;;;;;;;4.75;3.30;;;17.30;72.90;;;;;;5014535;28;20204;-69
2022/11/22 08:29:11;;;;;;;3.72;2.70;;;17.30;72.90;;;;;;4997418;28;20190;-69
2022/11/22 08:31:38;;;;;;;4.00;2.97;;;17.30;72.90;;;;;;5013579;28;20191;-69
2022/11/22 08:34:05;;;;;;;3.80;3.00;;;17.30;72.80;;;;;;5013420;28;20274;-69
2022/11/22 08:36:31;;;;;;;3.88;2.92;;;17.30;72.80;;;;;;5012860;28;20219;-69
2022/11/22 08:38:57;;;;;;;4.72;3.03;;;17.30;72.90;;;;;;5013454;28;20194;-70
2022/11/22 08:41:23;;;;;;;3.22;2.65;;;17.30;72.70;;;;;;4997138;28;20275;-69
2022/11/22 08:43:51;;;;;;;3.47;2.80;;;17.30;72.80;;;;;;4996912;28;20197;-69
2022/11/22 08:46:18;;;;;;;3.20;2.63;;;17.30;72.80;;;;;;5013095;28;20176;-69
2022/11/22 08:48:45;;;;;;;3.50;2.88;;;17.30;72.70;;;;;;5028561;22;20227;-63
2022/11/22 08:51:13;;;;;;;3.67;2.80;;;17.30;72.80;;;;;;5029989;28;20238;-62
2022/11/22 08:53:42;;;;;;;4.53;2.80;;;17.30;72.80;;;;;;5031960;28;20184;-62
2022/11/22 08:56:13;;;;;;;2.92;2.55;;;17.30;72.80;;;;;;5031561;28;20265;-63
2022/11/22 08:58:39;;;;;;;3.47;2.70;;;17.30;72.80;;;;;;5015539;28;20194;-62
2022/11/22 09:01:14;;;;;;;4.10;2.67;;;17.30;72.80;;;;;;5031724;28;20595;-63
2022/11/22 09:03:41;;;;;;;3.60;2.80;;;17.30;72.80;;;;;;5032077;28;20214;-63
2022/11/22 09:06:14;;;;;;;2.50;2.30;;;17.30;72.80;;;;;;5031367;28;20242;-63
2022/11/22 09:08:40;;;;;;;2.80;2.50;;;17.30;72.80;;;;;;5015305;28;20672;-62
2022/11/22 09:11:10;;;;;;;3.33;3.03;;;17.30;72.70;;;;;;5031718;28;20201;-63
2022/11/22 09:13:37;;;;;;;3.00;2.50;;;17.30;72.80;;;;;;5031536;28;20282;-62
2022/11/22 09:16:08;;;;;;;2.80;2.45;;;17.30;72.80;;;;;;5030845;28;20211;-64
2022/11/22 09:18:34;;;;;;;2.67;2.38;;;17.30;73.50;;;;;;5031655;28;20198;-63
2022/11/22 09:21:27;;;;;;;3.33;2.55;;;17.40;73.00;;;;;;5033038;28;20279;-62
2022/11/22 09:23:53;;;;;;;3.45;2.28;;;17.30;72.90;;;;;;5044202;28;20664;-63
2022/11/22 09:26:25;;;;;;;2.25;2.05;;;17.30;72.80;;;;;;5031292;28;20187;-63
2022/11/22 09:28:54;;;;;;;2.65;2.33;;;17.30;72.80;;;;;;5031669;28;20191;-63
2022/11/22 09:31:22;;;;;;;3.00;2.67;;;17.30;72.90;;;;;;5032679;28;20474;-63
2022/11/22 09:33:49;;;;;;;2.90;2.20;;;17.30;72.80;;;;;;5031415;28;20244;-63
2022/11/22 09:36:21;;;;;;;3.88;2.35;;;17.30;72.80;;;;;;5047528;28;20215;-63
2022/11/22 09:38:49;;;;;;;2.50;2.30;;;17.30;72.80;;;;;;5048005;28;20218;-63
2022/11/22 09:41:19;;;;;;;2.58;1.98;;;17.30;72.80;;;;;;5031072;28;20183;-61
2022/11/22 09:44:14;;;;;;;3.58;2.13;;;17.30;72.80;;;;;;5014584;28;20187;-63
2022/11/22 09:46:57;;;;;;;2.78;2.40;;;17.30;72.80;;;;;;5014393;28;20241;-63
2022/11/22 09:49:54;;;;;;;3.03;2.40;;;17.30;72.70;;;;;;5030873;28;20683;-63
2022/11/22 09:52:45;;;;;;;2.97;2.17;;;17.30;72.70;;;;;;5030926;28;20221;-63
2022/11/22 09:55:27;;;;;;;2.85;2.15;;;17.30;72.80;;;;;;5030970;28;20230;-63
2022/11/22 09:58:11;;;;;;;4.30;2.10;;;17.30;72.80;;;;;;5013334;28;20183;-63
2022/11/22 10:00:40;;;;;;;2.33;2.00;;;17.30;72.80;;;;;;5029844;28;20196;-63
2022/11/22 10:03:14;;;;;;;2.47;2.28;;;17.30;72.70;;;;;;5046833;28;20285;-63
2022/11/22 10:05:55;;;;;;;2.45;1.90;;;17.30;72.80;;;;;;5030618;28;20272;-63
2022/11/22 10:08:58;;;;;;;2.35;1.92;;;17.30;72.80;;;;;;5031177;28;20194;-62
2022/11/22 10:11:42;;;;;;;2.38;1.92;;;17.30;72.70;;;;;;5030563;28;20214;-63
2022/11/22 10:14:33;;;;;;;2.58;1.83;;;17.30;72.80;;;;;;5031554;28;20208;-63
2022/11/22 10:17:45;;;;;;;3.20;2.17;;;17.30;72.80;;;;;;5031285;28;20719;-63
2022/11/22 10:20:19;;;;;;;2.53;2.10;;;17.30;72.80;;;;;;5013902;28;20290;-62
2022/11/22 10:22:47;;;;;;;2.15;1.70;;;17.40;72.80;;;;;;5014046;28;20276;-62
2022/11/22 10:25:26;;;;;;;2.28;1.70;;;17.40;72.80;;;;;;5031749;28;20767;-63
2022/11/22 10:28:00;;;;;;;2.60;1.77;;;17.30;72.60;;;;;;5029410;28;20262;-63
2022/11/22 10:30:37;;;;;;;2.30;1.60;;;17.40;72.70;;;;;;5013735;28;20183;-63
2022/11/22 10:33:22;;;;;;;3.15;2.03;;;17.40;72.80;;;;;;5030376;28;20217;-63
2022/11/22 10:36:25;;;;;;;2.22;1.80;;;17.30;72.70;;;;;;5022770;28;20215;-63
2022/11/22 10:39:05;;;;;;;2.72;1.92;;;17.30;72.60;;;;;;5001603;28;20234;-63
2022/11/22 10:42:04;;;;;;;1.48;1.38;;;17.40;72.70;;;;;;5013737;28;20274;-63
2022/11/22 10:44:42;;;;;;;2.83;1.80;;;17.40;72.80;;;;;;5032026;28;20187;-63
2022/11/22 10:47:31;;;;;;;1.90;1.63;;;17.40;72.80;;;;;;5029541;28;20191;-63
2022/11/22 10:50:29;;;;;;;2.08;1.40;;;17.40;72.70;;;;;;5029827;28;20191;-63
2022/11/22 10:52:57;;;;;;;2.72;1.88;;;17.40;72.70;;;;;;5013369;28;20207;-63
2022/11/22 10:56:04;;;;;;;2.42;1.80;;;17.40;72.70;;;;;;5013562;28;20226;-63
2022/11/22 10:58:54;;;;;;;2.45;1.90;;;17.40;72.80;;;;;;5013410;28;20237;-63
2022/11/22 11:02:10;;;;;;;2.13;1.70;;;17.40;72.80;;;;;;5016301;28;20175;-62
2022/11/22 11:04:39;;;;;;;2.35;1.40;;;17.40;72.70;;;;;;4995546;28;20267;-62
2022/11/22 11:07:12;;;;;;;3.10;1.73;;;17.40;72.70;;;;;;5009013;28;20184;-62
2022/11/22 11:09:51;;;;;;;1.55;1.30;;;17.40;72.80;;;;;;5027126;28;20211;-62
2022/11/22 11:12:54;;;;;;;2.25;1.70;;;17.40;72.70;;;;;;5028993;28;20206;-63
2022/11/22 11:15:37;;;;;;;1.70;1.42;;;17.40;72.80;;;;;;5028920;28;20348;-62
2022/11/22 11:18:25;;;;;;;1.45;1.35;;;17.40;72.70;;;;;;5012150;28;20190;-63
2022/11/22 11:20:52;;;;;;;2.45;1.70;;;17.40;72.70;;;;;;5028664;28;20192;-63
2022/11/22 11:23:18;;;;;;;2.38;1.50;;;17.40;72.70;;;;;;4999809;28;20273;-61
2022/11/22 11:25:47;;;;;;;2.13;1.42;;;17.40;72.80;;;;;;5022276;28;20199;-62
2022/11/22 11:28:21;;;;;;;2.20;1.35;;;17.40;72.80;;;;;;4993492;28;20227;-63
2022/11/22 11:30:56;;;;;;;2.88;1.40;;;17.40;72.70;;;;;;5023521;28;20190;-63
2022/11/22 11:33:36;;;;;;;2.53;1.40;;;17.40;72.70;;;;;;5028878;28;20211;-63
2022/11/22 11:36:22;;;;;;;1.58;1.20;;;17.40;72.70;;;;;;4997103;28;20207;-63
2022/11/22 11:38:56;;;;;;;2.35;1.42;;;17.40;72.70;;;;;;5025980;28;20228;-63
2022/11/22 11:41:31;;;;;;;1.73;1.45;;;17.40;72.60;;;;;;5029586;28;20650;-63
2022/11/22 11:44:03;;;;;;;2.83;1.83;;;17.40;72.60;;;;;;5015233;28;20183;-63
2022/11/22 11:46:47;;;;;;;1.60;1.40;;;17.40;72.60;;;;;;5015883;28;20209;-63
2022/11/22 11:49:17;;;;;;;1.83;1.58;;;17.40;72.60;;;;;;5033195;28;20191;-62
2022/11/22 11:51:47;;;;;;;1.27;1.17;;;17.40;72.50;;;;;;5033021;28;20211;-63
2022/11/22 11:54:42;;;;;;;1.95;1.20;;;17.40;72.60;;;;;;5025068;28;20187;-62
2022/11/22 11:57:33;;;;;;;2.20;1.55;;;17.40;72.60;;;;;;5016318;28;20195;-63
2022/11/22 12:00:04;;;;;;;2.42;1.67;;;17.40;72.60;;;;;;5016706;28;20189;-63
2022/11/22 12:02:41;;;;;;;1.52;1.20;;;17.40;72.60;;;;;;5018723;28;20227;-63
2022/11/22 12:05:30;;;;;;;4.22;1.63;;;17.40;72.50;;;;;;5013403;28;20219;-63
2022/11/22 12:07:56;;;;;;;2.03;1.60;;;17.40;72.50;;;;;;5029300;28;20203;-63
2022/11/22 12:10:53;;;;;;;1.50;1.40;;;17.40;72.60;;;;;;5013275;28;20199;-63
2022/11/22 12:13:33;;;;;;;1.80;1.45;;;17.40;72.50;;;;;;5014999;28;20207;-63
2022/11/22 12:16:28;;;;;;;1.42;1.30;;;17.40;72.60;;;;;;5029424;28;20286;-63
2022/11/22 12:19:15;;;;;;;1.50;1.25;;;17.40;72.50;;;;;;5020717;28;20559;-63
2022/11/22 12:22:24;;;;;;;1.73;1.40;;;17.40;72.50;;;;;;4996008;28;20219;-62
2022/11/22 12:24:59;;;;;;;2.08;1.30;;;17.40;72.50;;;;;;5045228;28;20183;-63
2022/11/22 12:27:25;;;;;;;2.08;1.38;;;17.40;72.50;;;;;;5012057;28;20184;-62
2022/11/22 12:29:52;;;;;;;2.20;1.40;;;17.40;72.50;;;;;;5012533;28;20187;-63
2022/11/22 12:32:37;;;;;;;1.98;1.45;;;17.40;72.50;;;;;;5011972;28;20253;-63
2022/11/22 12:35:15;;;;;;;1.90;1.30;;;17.40;72.50;;;;;;5012116;28;20203;-63
2022/11/22 12:37:53;;;;;;;1.70;1.20;;;17.40;72.50;;;;;;5026067;28;20187;-63
2022/11/22 12:40:25;;;;;;;1.35;1.15;;;17.40;72.50;;;;;;5032069;28;20187;-63
2022/11/22 12:43:07;;;;;;;1.67;1.20;;;17.40;72.50;;;;;;5031857;28;20222;-63
2022/11/22 12:45:41;;;;;;;1.58;1.30;;;17.40;72.50;;;;;;5031945;28;20183;-63
2022/11/22 12:48:23;;;;;;;2.05;1.23;;;17.40;72.50;;;;;;5031796;28;20191;-63
2022/11/22 12:51:05;;;;;;;1.80;1.42;;;17.40;72.40;;;;;;5032779;28;20195;-63
2022/11/22 12:53:38;;;;;;;2.25;1.58;;;17.40;72.50;;;;;;5016676;28;20180;-64
2022/11/22 12:56:16;;;;;;;5.22;1.27;;;17.40;72.60;;;;;;5013369;28;20706;-63
2022/11/22 12:59:05;;;;;;;4.70;1.70;;;17.40;72.70;;;;;;5012248;28;20250;-64
2022/11/22 13:01:41;;;;;;;2.35;1.20;;;17.40;72.70;;;;;;4996110;28;20246;-64
2022/11/22 13:04:10;;;;;;;1.30;1.20;;;17.40;72.70;;;;;;4995994;28;20192;-64
2022/11/22 13:06:52;;;;;;;2.17;1.20;;;17.40;72.60;;;;;;5011927;28;20231;-64
2022/11/22 13:09:25;;;;;;;1.42;1.25;;;17.50;72.70;;;;;;5012095;28;20196;-63
2022/11/22 13:12:04;;;;;;;1.42;1.20;;;17.40;72.60;;;;;;5012015;28;20215;-64
2022/11/22 13:14:51;;;;;;;1.63;1.33;;;17.40;72.60;;;;;;5011858;28;20206;-64
2022/11/22 13:17:17;;;;;;;2.20;1.20;;;17.40;72.50;;;;;;5011543;28;20198;-64
2022/11/22 13:20:07;;;;;;;2.28;1.20;;;17.40;72.50;;;;;;5011809;28;20212;-63
2022/11/22 13:23:26;;;;;;;3.40;1.20;;;17.40;72.60;;;;;;4995334;28;20204;-64